sensor_id;sensor_type;location;lat;lon;timestamp;P1;durP1;ratioP1;P2;durP2;ratioP2
63653;SDS011;49809;47.418;19.080;2023-07-31T00:03:19;3.05;;;2.47;;
63653;SDS011;49809;47.418;19.080;2023-07-31T00:07:02;4.12;;;2.53;;
63653;SDS011;49809;47.418;19.080;2023-07-31T00:10:19;2.72;;;2.17;;
63653;SDS011;49809;47.418;19.080;2023-07-31T00:13:39;2.40;;;2.10;;
63653;SDS011;49809;47.418;19.080;2023-07-31T00:17:07;2.53;;;2.20;;
63653;SDS011;49809;47.418;19.080;2023-07-31T00:20:25;2.72;;;2.17;;
63653;SDS011;49809;47.418;19.080;2023-07-31T00:23:42;3.08;;;2.28;;
63653;SDS011;49809;47.418;19.080;2023-07-31T00:27:17;2.58;;;2.35;;
63653;SDS011;49809;47.418;19.080;2023-07-31T00:30:37;2.72;;;2.00;;
63653;SDS011;49809;47.418;19.080;2023-07-31T00:34:05;2.72;;;2.42;;
63653;SDS011;49809;47.418;19.080;2023-07-31T00:37:37;3.60;;;2.47;;
63653;SDS011;49809;47.418;19.080;2023-07-31T00:40:54;3.62;;;2.40;;
63653;SDS011;49809;47.418;19.080;2023-07-31T00:44:22;3.17;;;2.37;;
63653;SDS011;49809;47.418;19.080;2023-07-31T00:47:57;2.85;;;2.00;;
63653;SDS011;49809;47.418;19.080;2023-07-31T00:51:16;3.10;;;2.33;;
63653;SDS011;49809;47.418;19.080;2023-07-31T00:54:42;3.55;;;1.70;;
63653;SDS011;49809;47.418;19.080;2023-07-31T00:58:02;2.62;;;2.10;;
63653;SDS011;49809;47.418;19.080;2023-07-31T01:01:28;2.87;;;2.22;;
63653;SDS011;49809;47.418;19.080;2023-07-31T01:05:04;3.62;;;2.22;;
63653;SDS011;49809;47.418;19.080;2023-07-31T01:08:37;2.58;;;2.00;;
63653;SDS011;49809;47.418;19.080;2023-07-31T01:12:35;5.10;;;2.10;;
63653;SDS011;49809;47.418;19.080;2023-07-31T01:15:55;2.53;;;2.28;;
63653;SDS011;49809;47.418;19.080;2023-07-31T01:19:14;3.05;;;2.12;;
63653;SDS011;49809;47.418;19.080;2023-07-31T01:26:18;3.05;;;2.20;;
63653;SDS011;49809;47.418;19.080;2023-07-31T01:29:43;2.45;;;1.70;;
63653;SDS011;49809;47.418;19.080;2023-07-31T01:33:41;3.83;;;1.98;;
63653;SDS011;49809;47.418;19.080;2023-07-31T01:37:27;2.58;;;1.92;;
63653;SDS011;49809;47.418;19.080;2023-07-31T01:40:50;2.80;;;2.10;;
63653;SDS011;49809;47.418;19.080;2023-07-31T01:44:10;3.33;;;2.10;;
63653;SDS011;49809;47.418;19.080;2023-07-31T01:47:29;2.03;;;1.52;;
63653;SDS011;49809;47.418;19.080;2023-07-31T01:50:47;2.67;;;1.58;;
63653;SDS011;49809;47.418;19.080;2023-07-31T01:54:24;2.45;;;1.80;;
63653;SDS011;49809;47.418;19.080;2023-07-31T01:57:48;1.77;;;1.45;;
63653;SDS011;49809;47.418;19.080;2023-07-31T02:01:25;1.77;;;1.50;;
63653;SDS011;49809;47.418;19.080;2023-07-31T02:04:44;2.50;;;1.60;;
63653;SDS011;49809;47.418;19.080;2023-07-31T02:08:18;2.60;;;1.70;;
63653;SDS011;49809;47.418;19.080;2023-07-31T02:11:38;6.15;;;1.83;;
63653;SDS011;49809;47.418;19.080;2023-07-31T02:14:58;4.87;;;1.70;;
63653;SDS011;49809;47.418;19.080;2023-07-31T02:18:28;2.30;;;1.60;;
63653;SDS011;49809;47.418;19.080;2023-07-31T02:21:51;2.28;;;1.55;;
63653;SDS011;49809;47.418;19.080;2023-07-31T02:25:11;1.87;;;1.50;;
63653;SDS011;49809;47.418;19.080;2023-07-31T02:28:29;2.30;;;1.65;;
63653;SDS011;49809;47.418;19.080;2023-07-31T02:31:59;2.90;;;1.50;;
63653;SDS011;49809;47.418;19.080;2023-07-31T02:35:14;2.58;;;1.77;;
63653;SDS011;49809;47.418;19.080;2023-07-31T02:38:42;2.65;;;1.80;;
63653;SDS011;49809;47.418;19.080;2023-07-31T02:42:05;1.92;;;1.62;;
63653;SDS011;49809;47.418;19.080;2023-07-31T02:45:26;2.92;;;1.70;;
63653;SDS011;49809;47.418;19.080;2023-07-31T02:48:45;2.00;;;1.73;;
63653;SDS011;49809;47.418;19.080;2023-07-31T02:52:05;2.28;;;1.60;;
63653;SDS011;49809;47.418;19.080;2023-07-31T02:55:24;2.15;;;1.50;;
63653;SDS011;49809;47.418;19.080;2023-07-31T02:58:54;2.28;;;1.55;;
63653;SDS011;49809;47.418;19.080;2023-07-31T03:02:15;3.15;;;1.67;;
63653;SDS011;49809;47.418;19.080;2023-07-31T03:05:38;2.47;;;1.70;;
63653;SDS011;49809;47.418;19.080;2023-07-31T03:09:09;2.03;;;1.48;;
63653;SDS011;49809;47.418;19.080;2023-07-31T03:12:26;2.15;;;1.40;;
63653;SDS011;49809;47.418;19.080;2023-07-31T03:16:09;2.90;;;1.30;;
63653;SDS011;49809;47.418;19.080;2023-07-31T03:19:30;2.85;;;1.50;;
63653;SDS011;49809;47.418;19.080;2023-07-31T03:22:49;2.55;;;1.30;;
63653;SDS011;49809;47.418;19.080;2023-07-31T03:26:17;2.47;;;1.50;;
63653;SDS011;49809;47.418;19.080;2023-07-31T03:29:45;1.60;;;1.30;;
63653;SDS011;49809;47.418;19.080;2023-07-31T03:33:00;1.98;;;1.50;;
63653;SDS011;49809;47.418;19.080;2023-07-31T03:36:38;3.47;;;1.40;;
63653;SDS011;49809;47.418;19.080;2023-07-31T03:40:01;3.08;;;1.70;;
63653;SDS011;49809;47.418;19.080;2023-07-31T03:43:18;1.98;;;1.50;;
63653;SDS011;49809;47.418;19.080;2023-07-31T03:46:54;2.78;;;1.65;;
63653;SDS011;49809;47.418;19.080;2023-07-31T03:50:14;3.70;;;1.27;;
63653;SDS011;49809;47.418;19.080;2023-07-31T03:53:50;2.30;;;1.55;;
63653;SDS011;49809;47.418;19.080;2023-07-31T03:57:07;4.65;;;1.42;;
63653;SDS011;49809;47.418;19.080;2023-07-31T04:00:26;2.10;;;1.50;;
63653;SDS011;49809;47.418;19.080;2023-07-31T04:03:56;2.15;;;1.50;;
63653;SDS011;49809;47.418;19.080;2023-07-31T04:07:14;2.87;;;1.40;;
63653;SDS011;49809;47.418;19.080;2023-07-31T04:10:43;2.62;;;1.35;;
63653;SDS011;49809;47.418;19.080;2023-07-31T04:14:03;1.77;;;1.40;;
63653;SDS011;49809;47.418;19.080;2023-07-31T04:17:33;2.97;;;1.42;;
63653;SDS011;49809;47.418;19.080;2023-07-31T04:20:50;2.08;;;1.48;;
63653;SDS011;49809;47.418;19.080;2023-07-31T04:24:25;4.75;;;1.83;;
63653;SDS011;49809;47.418;19.080;2023-07-31T04:27:44;3.35;;;2.10;;
63653;SDS011;49809;47.418;19.080;2023-07-31T04:31:26;1.87;;;1.23;;
63653;SDS011;49809;47.418;19.080;2023-07-31T04:35:01;2.97;;;1.58;;
63653;SDS011;49809;47.418;19.080;2023-07-31T04:38:23;2.33;;;1.33;;
63653;SDS011;49809;47.418;19.080;2023-07-31T04:41:55;3.30;;;1.40;;
63653;SDS011;49809;47.418;19.080;2023-07-31T04:45:14;2.28;;;1.37;;
63653;SDS011;49809;47.418;19.080;2023-07-31T04:48:47;2.08;;;1.50;;
63653;SDS011;49809;47.418;19.080;2023-07-31T04:52:05;2.00;;;1.55;;
63653;SDS011;49809;47.418;19.080;2023-07-31T04:55:34;2.25;;;1.37;;
63653;SDS011;49809;47.418;19.080;2023-07-31T04:58:58;2.37;;;1.50;;
63653;SDS011;49809;47.418;19.080;2023-07-31T05:02:15;2.10;;;1.45;;
63653;SDS011;49809;47.418;19.080;2023-07-31T05:05:37;2.42;;;1.50;;
63653;SDS011;49809;47.418;19.080;2023-07-31T05:09:10;3.62;;;1.45;;
63653;SDS011;49809;47.418;19.080;2023-07-31T05:12:33;1.75;;;1.17;;
63653;SDS011;49809;47.418;19.080;2023-07-31T05:16:00;1.25;;;1.12;;
63653;SDS011;49809;47.418;19.080;2023-07-31T05:19:19;2.72;;;1.30;;
63653;SDS011;49809;47.418;19.080;2023-07-31T05:22:38;1.60;;;1.00;;
63653;SDS011;49809;47.418;19.080;2023-07-31T05:26:01;1.92;;;1.12;;
63653;SDS011;49809;47.418;19.080;2023-07-31T05:29:19;1.35;;;1.10;;
63653;SDS011;49809;47.418;19.080;2023-07-31T05:32:52;2.28;;;1.08;;
63653;SDS011;49809;47.418;19.080;2023-07-31T05:36:12;2.42;;;1.12;;
63653;SDS011;49809;47.418;19.080;2023-07-31T05:39:56;1.37;;;1.15;;
63653;SDS011;49809;47.418;19.080;2023-07-31T05:43:13;1.75;;;1.05;;
63653;SDS011;49809;47.418;19.080;2023-07-31T05:46:43;3.05;;;1.12;;
63653;SDS011;49809;47.418;19.080;2023-07-31T05:50:01;2.15;;;1.08;;
63653;SDS011;49809;47.418;19.080;2023-07-31T05:53:24;1.40;;;1.10;;
63653;SDS011;49809;47.418;19.080;2023-07-31T05:56:54;1.85;;;1.10;;
63653;SDS011;49809;47.418;19.080;2023-07-31T06:00:24;2.17;;;1.00;;
63653;SDS011;49809;47.418;19.080;2023-07-31T06:03:41;1.58;;;1.10;;
63653;SDS011;49809;47.418;19.080;2023-07-31T06:07:00;7.50;;;1.10;;
63653;SDS011;49809;47.418;19.080;2023-07-31T06:10:33;2.53;;;1.33;;
63653;SDS011;49809;47.418;19.080;2023-07-31T06:13:51;1.30;;;1.02;;
63653;SDS011;49809;47.418;19.080;2023-07-31T06:17:22;1.60;;;1.08;;
63653;SDS011;49809;47.418;19.080;2023-07-31T06:20:42;1.25;;;0.90;;
63653;SDS011;49809;47.418;19.080;2023-07-31T06:24:23;1.45;;;1.05;;
63653;SDS011;49809;47.418;19.080;2023-07-31T06:28:23;1.90;;;1.20;;
63653;SDS011;49809;47.418;19.080;2023-07-31T06:32:03;2.62;;;1.10;;
63653;SDS011;49809;47.418;19.080;2023-07-31T06:35:40;1.92;;;0.93;;
63653;SDS011;49809;47.418;19.080;2023-07-31T06:39:17;3.72;;;1.10;;
63653;SDS011;49809;47.418;19.080;2023-07-31T06:42:56;6.90;;;1.25;;
63653;SDS011;49809;47.418;19.080;2023-07-31T06:46:29;1.67;;;1.00;;
63653;SDS011;49809;47.418;19.080;2023-07-31T06:53:31;1.80;;;0.88;;
63653;SDS011;49809;47.418;19.080;2023-07-31T06:56:54;2.47;;;0.95;;
63653;SDS011;49809;47.418;19.080;2023-07-31T07:00:45;2.37;;;1.10;;
63653;SDS011;49809;47.418;19.080;2023-07-31T07:04:09;3.45;;;1.00;;
63653;SDS011;49809;47.418;19.080;2023-07-31T07:07:44;3.20;;;1.02;;
63653;SDS011;49809;47.418;19.080;2023-07-31T07:11:08;2.67;;;1.25;;
63653;SDS011;49809;47.418;19.080;2023-07-31T07:14:30;2.20;;;1.08;;
63653;SDS011;49809;47.418;19.080;2023-07-31T07:18:18;6.05;;;1.00;;
63653;SDS011;49809;47.418;19.080;2023-07-31T07:22:10;1.75;;;1.02;;
63653;SDS011;49809;47.418;19.080;2023-07-31T07:25:47;2.25;;;1.02;;
63653;SDS011;49809;47.418;19.080;2023-07-31T07:29:24;4.53;;;1.10;;
63653;SDS011;49809;47.418;19.080;2023-07-31T07:32:59;2.28;;;1.02;;
63653;SDS011;49809;47.418;19.080;2023-07-31T07:36:27;3.05;;;1.23;;
63653;SDS011;49809;47.418;19.080;2023-07-31T07:40:01;1.95;;;1.17;;
63653;SDS011;49809;47.418;19.080;2023-07-31T07:43:34;2.05;;;1.00;;
63653;SDS011;49809;47.418;19.080;2023-07-31T07:47:12;1.40;;;1.17;;
63653;SDS011;49809;47.418;19.080;2023-07-31T07:51:01;2.28;;;1.08;;
63653;SDS011;49809;47.418;19.080;2023-07-31T07:54:42;3.05;;;1.15;;
63653;SDS011;49809;47.418;19.080;2023-07-31T08:22:55;3.05;;;1.25;;
63653;SDS011;49809;47.418;19.080;2023-07-31T08:26:36;1.80;;;1.00;;
63653;SDS011;49809;47.418;19.080;2023-07-31T08:30:12;2.33;;;1.10;;
63653;SDS011;49809;47.418;19.080;2023-07-31T08:33:51;2.17;;;1.02;;
63653;SDS011;49809;47.418;19.080;2023-07-31T08:37:25;3.58;;;1.17;;
63653;SDS011;49809;47.418;19.080;2023-07-31T08:41:21;1.98;;;1.20;;
63653;SDS011;49809;47.418;19.080;2023-07-31T08:48:33;2.58;;;0.90;;
63653;SDS011;49809;47.418;19.080;2023-07-31T08:52:12;3.80;;;1.20;;
63653;SDS011;49809;47.418;19.080;2023-07-31T08:55:47;2.65;;;1.10;;
63653;SDS011;49809;47.418;19.080;2023-07-31T08:59:12;1.80;;;1.00;;
63653;SDS011;49809;47.418;19.080;2023-07-31T09:02:37;2.53;;;1.10;;
63653;SDS011;49809;47.418;19.080;2023-07-31T09:06:32;1.92;;;1.20;;
63653;SDS011;49809;47.418;19.080;2023-07-31T09:10:10;3.78;;;1.00;;
63653;SDS011;49809;47.418;19.080;2023-07-31T09:13:46;1.75;;;0.93;;
63653;SDS011;49809;47.418;19.080;2023-07-31T09:17:15;2.17;;;0.90;;
63653;SDS011;49809;47.418;19.080;2023-07-31T09:21:07;3.97;;;1.10;;
63653;SDS011;49809;47.418;19.080;2023-07-31T09:24:26;1.65;;;1.00;;
63653;SDS011;49809;47.418;19.080;2023-07-31T09:27:53;2.25;;;1.20;;
63653;SDS011;49809;47.418;19.080;2023-07-31T09:31:31;3.58;;;1.08;;
63653;SDS011;49809;47.418;19.080;2023-07-31T09:35:27;3.20;;;1.20;;
63653;SDS011;49809;47.418;19.080;2023-07-31T09:39:18;3.15;;;1.00;;
63653;SDS011;49809;47.418;19.080;2023-07-31T09:42:57;2.92;;;1.17;;
63653;SDS011;49809;47.418;19.080;2023-07-31T09:46:27;2.37;;;1.10;;
63653;SDS011;49809;47.418;19.080;2023-07-31T09:50:44;2.65;;;1.02;;
63653;SDS011;49809;47.418;19.080;2023-07-31T09:54:21;1.08;;;0.82;;
63653;SDS011;49809;47.418;19.080;2023-07-31T09:57:48;2.58;;;1.00;;
63653;SDS011;49809;47.418;19.080;2023-07-31T10:01:28;2.25;;;1.05;;
63653;SDS011;49809;47.418;19.080;2023-07-31T10:05:02;3.12;;;1.12;;
63653;SDS011;49809;47.418;19.080;2023-07-31T10:08:32;3.42;;;1.20;;
63653;SDS011;49809;47.418;19.080;2023-07-31T10:12:12;3.50;;;1.12;;
63653;SDS011;49809;47.418;19.080;2023-07-31T10:15:34;1.90;;;0.95;;
63653;SDS011;49809;47.418;19.080;2023-07-31T10:18:54;3.10;;;1.05;;
63653;SDS011;49809;47.418;19.080;2023-07-31T10:22:12;2.20;;;1.02;;
63653;SDS011;49809;47.418;19.080;2023-07-31T10:26:00;1.67;;;1.00;;
63653;SDS011;49809;47.418;19.080;2023-07-31T10:29:52;2.92;;;0.95;;
63653;SDS011;49809;47.418;19.080;2023-07-31T10:33:38;1.65;;;0.80;;
63653;SDS011;49809;47.418;19.080;2023-07-31T10:37:23;3.05;;;1.20;;
63653;SDS011;49809;47.418;19.080;2023-07-31T10:41:07;5.47;;;1.40;;
63653;SDS011;49809;47.418;19.080;2023-07-31T10:44:46;2.45;;;0.93;;
63653;SDS011;49809;47.418;19.080;2023-07-31T10:48:25;2.22;;;1.05;;
63653;SDS011;49809;47.418;19.080;2023-07-31T10:52:23;1.87;;;0.98;;
63653;SDS011;49809;47.418;19.080;2023-07-31T10:55:58;1.20;;;0.88;;
63653;SDS011;49809;47.418;19.080;2023-07-31T10:59:35;2.67;;;1.10;;
63653;SDS011;49809;47.418;19.080;2023-07-31T11:03:51;1.40;;;0.95;;
63653;SDS011;49809;47.418;19.080;2023-07-31T13:20:16;2.30;;;0.90;;
63653;SDS011;49809;47.418;19.080;2023-07-31T18:25:14;2.50;;;1.25;;
63653;SDS011;49809;47.418;19.080;2023-07-31T18:51:04;1.92;;;1.23;;
63653;SDS011;49809;47.418;19.080;2023-07-31T19:47:34;2.87;;;1.20;;
63653;SDS011;49809;47.418;19.080;2023-07-31T21:33:18;2.60;;;1.70;;
63653;SDS011;49809;47.418;19.080;2023-07-31T21:36:42;2.08;;;1.58;;
63653;SDS011;49809;47.418;19.080;2023-07-31T21:40:19;3.50;;;1.60;;
63653;SDS011;49809;47.418;19.080;2023-07-31T21:52:11;2.92;;;1.62;;
63653;SDS011;49809;47.418;19.080;2023-07-31T21:55:56;3.15;;;1.52;;
63653;SDS011;49809;47.418;19.080;2023-07-31T22:06:57;2.53;;;1.70;;
63653;SDS011;49809;47.418;19.080;2023-07-31T22:10:19;3.50;;;1.60;;
63653;SDS011;49809;47.418;19.080;2023-07-31T22:14:10;4.90;;;1.58;;
63653;SDS011;49809;47.418;19.080;2023-07-31T22:17:48;3.55;;;1.48;;
63653;SDS011;49809;47.418;19.080;2023-07-31T22:21:31;4.22;;;2.20;;
63653;SDS011;49809;47.418;19.080;2023-07-31T22:29:26;3.20;;;1.33;;
63653;SDS011;49809;47.418;19.080;2023-07-31T22:32:53;2.42;;;1.60;;
63653;SDS011;49809;47.418;19.080;2023-07-31T22:36:32;6.40;;;2.00;;
63653;SDS011;49809;47.418;19.080;2023-07-31T22:44:16;3.95;;;1.50;;
63653;SDS011;49809;47.418;19.080;2023-07-31T22:58:35;4.52;;;1.60;;
63653;SDS011;49809;47.418;19.080;2023-07-31T23:06:28;3.05;;;2.08;;
63653;SDS011;49809;47.418;19.080;2023-07-31T23:10:28;3.25;;;1.90;;
63653;SDS011;49809;47.418;19.080;2023-07-31T23:29:27;2.75;;;1.85;;
63653;SDS011;49809;47.418;19.080;2023-07-31T23:40:45;5.03;;;1.95;;
63653;SDS011;49809;47.418;19.080;2023-07-31T23:44:27;4.00;;;1.98;;
63653;SDS011;49809;47.418;19.080;2023-07-31T23:48:24;8.27;;;2.28;;
63653;SDS011;49809;47.418;19.080;2023-07-31T23:51:38;4.70;;;1.90;;
63653;SDS011;49809;47.418;19.080;2023-07-31T23:55:20;4.05;;;1.83;;
63653;SDS011;49809;47.418;19.080;2023-07-31T23:58:54;2.95;;;1.83;;
